sensor_id;sensor_type;location;lat;lon;timestamp;pressure;altitude;pressure_sealevel;temperature;humidity
31092;BME280;67728;53.122;12.776;2023-05-23T00:00:44;100435.03;;;14.76;68.62
31092;BME280;67728;53.122;12.776;2023-05-23T00:02:16;100451.53;;;14.77;68.50
31092;BME280;67728;53.122;12.776;2023-05-23T00:03:47;100446.31;;;14.77;68.11
31092;BME280;67728;53.122;12.776;2023-05-23T00:05:19;100452.28;;;14.80;67.26
31092;BME280;67728;53.122;12.776;2023-05-23T00:06:51;100444.69;;;14.74;68.41
31092;BME280;67728;53.122;12.776;2023-05-23T00:08:22;100441.38;;;14.69;67.88
31092;BME280;67728;53.122;12.776;2023-05-23T00:09:54;100435.81;;;14.55;68.81
31092;BME280;67728;53.122;12.776;2023-05-23T00:11:27;100431.75;;;14.47;69.80
31092;BME280;67728;53.122;12.776;2023-05-23T00:12:58;100432.00;;;14.41;69.18
31092;BME280;67728;53.122;12.776;2023-05-23T00:14:29;100421.59;;;14.39;69.31
31092;BME280;67728;53.122;12.776;2023-05-23T00:16:03;100418.91;;;14.42;68.96
31092;BME280;67728;53.122;12.776;2023-05-23T00:17:35;100419.00;;;14.39;69.25
31092;BME280;67728;53.122;12.776;2023-05-23T00:19:08;100422.06;;;14.50;69.64
31092;BME280;67728;53.122;12.776;2023-05-23T00:20:40;100413.97;;;14.58;69.19
31092;BME280;67728;53.122;12.776;2023-05-23T00:22:11;100414.72;;;14.61;68.32
31092;BME280;67728;53.122;12.776;2023-05-23T00:23:45;100418.50;;;14.53;67.81
31092;BME280;67728;53.122;12.776;2023-05-23T00:25:17;100419.19;;;14.58;68.28
31092;BME280;67728;53.122;12.776;2023-05-23T00:26:52;100426.16;;;14.57;68.17
31092;BME280;67728;53.122;12.776;2023-05-23T00:28:24;100423.78;;;14.51;68.83
31092;BME280;67728;53.122;12.776;2023-05-23T00:29:55;100415.78;;;14.56;68.68
31092;BME280;67728;53.122;12.776;2023-05-23T00:31:27;100415.53;;;14.38;68.88
31092;BME280;67728;53.122;12.776;2023-05-23T00:32:58;100415.69;;;14.34;68.98
31092;BME280;67728;53.122;12.776;2023-05-23T00:34:30;100409.50;;;14.38;69.15
31092;BME280;67728;53.122;12.776;2023-05-23T00:36:01;100414.13;;;14.53;68.86
31092;BME280;67728;53.122;12.776;2023-05-23T00:37:32;100408.75;;;14.58;69.06
31092;BME280;67728;53.122;12.776;2023-05-23T00:39:04;100410.56;;;14.56;68.92
31092;BME280;67728;53.122;12.776;2023-05-23T00:40:36;100415.84;;;14.54;67.88
31092;BME280;67728;53.122;12.776;2023-05-23T00:42:08;100416.44;;;14.62;67.78
31092;BME280;67728;53.122;12.776;2023-05-23T00:43:39;100415.34;;;14.68;67.36
31092;BME280;67728;53.122;12.776;2023-05-23T00:45:11;100410.50;;;14.57;66.88
31092;BME280;67728;53.122;12.776;2023-05-23T00:46:44;100412.91;;;14.38;67.22
31092;BME280;67728;53.122;12.776;2023-05-23T00:48:16;100418.03;;;14.42;67.69
31092;BME280;67728;53.122;12.776;2023-05-23T00:49:48;100417.75;;;14.49;68.03
31092;BME280;67728;53.122;12.776;2023-05-23T00:51:19;100415.00;;;14.29;69.34
31092;BME280;67728;53.122;12.776;2023-05-23T00:52:51;100419.22;;;14.33;68.55
31092;BME280;67728;53.122;12.776;2023-05-23T00:54:23;100410.25;;;14.15;69.60
31092;BME280;67728;53.122;12.776;2023-05-23T00:55:56;100411.34;;;14.34;69.04
31092;BME280;67728;53.122;12.776;2023-05-23T00:57:29;100408.00;;;14.29;68.21
31092;BME280;67728;53.122;12.776;2023-05-23T00:59:04;100407.66;;;14.40;67.31
31092;BME280;67728;53.122;12.776;2023-05-23T01:00:36;100399.63;;;14.46;67.12
31092;BME280;67728;53.122;12.776;2023-05-23T01:02:08;100400.44;;;14.47;67.59
31092;BME280;67728;53.122;12.776;2023-05-23T01:03:41;100404.38;;;14.35;67.93
31092;BME280;67728;53.122;12.776;2023-05-23T01:05:15;100405.72;;;14.20;69.61
31092;BME280;67728;53.122;12.776;2023-05-23T01:06:47;100392.38;;;14.05;70.08
31092;BME280;67728;53.122;12.776;2023-05-23T01:08:20;100392.09;;;13.88;70.08
31092;BME280;67728;53.122;12.776;2023-05-23T01:09:51;100392.69;;;13.96;70.09
31092;BME280;67728;53.122;12.776;2023-05-23T01:11:28;100392.88;;;14.14;69.82
31092;BME280;67728;53.122;12.776;2023-05-23T01:13:12;100393.38;;;14.25;69.30
31092;BME280;67728;53.122;12.776;2023-05-23T01:14:49;100386.66;;;14.18;69.54
31092;BME280;67728;53.122;12.776;2023-05-23T01:16:29;100380.56;;;13.68;71.68
31092;BME280;67728;53.122;12.776;2023-05-23T01:18:07;100379.44;;;13.51;72.12
31092;BME280;67728;53.122;12.776;2023-05-23T01:19:55;100376.50;;;13.60;70.69
31092;BME280;67728;53.122;12.776;2023-05-23T01:21:30;100378.81;;;13.69;71.48
31092;BME280;67728;53.122;12.776;2023-05-23T01:25:13;100377.22;;;13.90;70.50
31092;BME280;67728;53.122;12.776;2023-05-23T01:27:00;100368.53;;;13.91;70.77
31092;BME280;67728;53.122;12.776;2023-05-23T01:28:44;100376.19;;;13.70;70.58
31092;BME280;67728;53.122;12.776;2023-05-23T01:30:18;100375.88;;;13.53;71.51
31092;BME280;67728;53.122;12.776;2023-05-23T01:31:52;100374.75;;;13.60;71.38
31092;BME280;67728;53.122;12.776;2023-05-23T01:33:26;100368.41;;;13.43;70.57
31092;BME280;67728;53.122;12.776;2023-05-23T01:35:00;100365.16;;;13.36;71.65
31092;BME280;67728;53.122;12.776;2023-05-23T01:36:33;100367.75;;;13.36;71.94
31092;BME280;67728;53.122;12.776;2023-05-23T01:38:05;100362.44;;;13.39;72.45
31092;BME280;67728;53.122;12.776;2023-05-23T01:39:37;100361.13;;;13.52;71.38
31092;BME280;67728;53.122;12.776;2023-05-23T01:41:09;100360.94;;;13.58;71.96
31092;BME280;67728;53.122;12.776;2023-05-23T01:42:40;100365.56;;;13.50;71.48
31092;BME280;67728;53.122;12.776;2023-05-23T01:44:14;100363.22;;;13.43;71.06
31092;BME280;67728;53.122;12.776;2023-05-23T01:45:47;100364.06;;;13.43;71.42
31092;BME280;67728;53.122;12.776;2023-05-23T01:47:20;100356.88;;;13.50;71.57
31092;BME280;67728;53.122;12.776;2023-05-23T01:48:52;100354.81;;;13.33;71.67
31092;BME280;67728;53.122;12.776;2023-05-23T01:50:25;100355.13;;;13.24;71.23
31092;BME280;67728;53.122;12.776;2023-05-23T01:51:56;100354.63;;;13.39;71.69
31092;BME280;67728;53.122;12.776;2023-05-23T01:53:30;100352.78;;;13.43;70.85
31092;BME280;67728;53.122;12.776;2023-05-23T01:55:05;100351.66;;;13.50;71.15
31092;BME280;67728;53.122;12.776;2023-05-23T01:56:39;100354.00;;;13.57;70.58
31092;BME280;67728;53.122;12.776;2023-05-23T01:58:12;100350.31;;;13.64;70.41
31092;BME280;67728;53.122;12.776;2023-05-23T01:59:45;100353.91;;;13.60;71.42
31092;BME280;67728;53.122;12.776;2023-05-23T02:01:17;100349.81;;;13.53;71.44
31092;BME280;67728;53.122;12.776;2023-05-23T02:02:49;100349.75;;;13.55;71.02
31092;BME280;67728;53.122;12.776;2023-05-23T02:04:20;100350.41;;;13.61;70.79
31092;BME280;67728;53.122;12.776;2023-05-23T02:05:52;100354.56;;;13.67;71.32
31092;BME280;67728;53.122;12.776;2023-05-23T02:07:23;100349.97;;;13.73;71.61
31092;BME280;67728;53.122;12.776;2023-05-23T02:08:54;100352.34;;;13.56;71.16
31092;BME280;67728;53.122;12.776;2023-05-23T02:10:25;100349.31;;;13.42;72.41
31092;BME280;67728;53.122;12.776;2023-05-23T02:11:56;100344.97;;;13.43;72.19
31092;BME280;67728;53.122;12.776;2023-05-23T02:13:28;100350.28;;;13.40;72.40
31092;BME280;67728;53.122;12.776;2023-05-23T02:15:01;100340.50;;;13.46;72.77
31092;BME280;67728;53.122;12.776;2023-05-23T02:16:32;100342.03;;;13.52;72.38
31092;BME280;67728;53.122;12.776;2023-05-23T02:18:05;100340.16;;;13.57;72.24
31092;BME280;67728;53.122;12.776;2023-05-23T02:19:37;100346.28;;;13.54;73.25
31092;BME280;67728;53.122;12.776;2023-05-23T02:21:08;100345.41;;;13.55;72.96
31092;BME280;67728;53.122;12.776;2023-05-23T02:22:40;100343.91;;;13.48;73.10
31092;BME280;67728;53.122;12.776;2023-05-23T02:24:12;100336.03;;;13.50;72.56
31092;BME280;67728;53.122;12.776;2023-05-23T02:25:43;100337.41;;;13.60;72.69
31092;BME280;67728;53.122;12.776;2023-05-23T02:27:15;100345.91;;;13.66;71.73
31092;BME280;67728;53.122;12.776;2023-05-23T02:28:46;100334.47;;;13.70;72.24
31092;BME280;67728;53.122;12.776;2023-05-23T02:30:19;100338.59;;;13.76;72.20
31092;BME280;67728;53.122;12.776;2023-05-23T02:31:51;100343.56;;;13.84;72.72
31092;BME280;67728;53.122;12.776;2023-05-23T02:33:22;100333.94;;;13.86;72.50
31092;BME280;67728;53.122;12.776;2023-05-23T02:34:54;100338.00;;;13.68;73.05
31092;BME280;67728;53.122;12.776;2023-05-23T02:36:26;100340.94;;;13.59;73.57
31092;BME280;67728;53.122;12.776;2023-05-23T02:37:57;100343.19;;;13.69;72.16
31092;BME280;67728;53.122;12.776;2023-05-23T02:39:28;100329.03;;;13.76;72.20
31092;BME280;67728;53.122;12.776;2023-05-23T02:41:00;100340.91;;;13.85;71.89
31092;BME280;67728;53.122;12.776;2023-05-23T02:42:31;100332.88;;;13.91;72.17
31092;BME280;67728;53.122;12.776;2023-05-23T02:44:02;100345.03;;;13.92;71.86
31092;BME280;67728;53.122;12.776;2023-05-23T02:45:35;100343.03;;;13.99;71.68
31092;BME280;67728;53.122;12.776;2023-05-23T02:47:07;100339.19;;;13.84;71.34
31092;BME280;67728;53.122;12.776;2023-05-23T02:48:38;100342.88;;;13.78;70.75
31092;BME280;67728;53.122;12.776;2023-05-23T02:50:10;100345.53;;;13.77;71.12
31092;BME280;67728;53.122;12.776;2023-05-23T02:51:41;100337.78;;;13.75;71.48
31092;BME280;67728;53.122;12.776;2023-05-23T02:53:12;100346.09;;;13.87;71.56
31092;BME280;67728;53.122;12.776;2023-05-23T02:54:44;100342.63;;;13.86;71.04
31092;BME280;67728;53.122;12.776;2023-05-23T02:56:15;100345.38;;;13.82;72.80
31092;BME280;67728;53.122;12.776;2023-05-23T02:57:46;100345.25;;;13.85;72.61
31092;BME280;67728;53.122;12.776;2023-05-23T02:59:18;100350.47;;;13.85;72.82
31092;BME280;67728;53.122;12.776;2023-05-23T03:00:50;100352.88;;;13.91;73.52
31092;BME280;67728;53.122;12.776;2023-05-23T03:02:21;100353.72;;;13.91;73.72
31092;BME280;67728;53.122;12.776;2023-05-23T03:03:53;100357.34;;;13.87;76.03
31092;BME280;67728;53.122;12.776;2023-05-23T03:05:24;100360.66;;;13.67;74.68
31092;BME280;67728;53.122;12.776;2023-05-23T03:06:56;100352.66;;;13.72;74.52
31092;BME280;67728;53.122;12.776;2023-05-23T03:08:28;100365.09;;;13.64;78.23
31092;BME280;67728;53.122;12.776;2023-05-23T03:09:59;100365.06;;;13.39;77.08
31092;BME280;67728;53.122;12.776;2023-05-23T03:11:31;100361.75;;;13.34;80.03
31092;BME280;67728;53.122;12.776;2023-05-23T03:13:03;100373.38;;;13.24;79.91
31092;BME280;67728;53.122;12.776;2023-05-23T03:14:34;100366.50;;;13.22;81.01
31092;BME280;67728;53.122;12.776;2023-05-23T03:16:07;100360.88;;;13.07;81.04
31092;BME280;67728;53.122;12.776;2023-05-23T03:17:39;100364.56;;;12.99;81.11
31092;BME280;67728;53.122;12.776;2023-05-23T03:19:09;100367.41;;;12.91;82.11
31092;BME280;67728;53.122;12.776;2023-05-23T03:20:41;100370.34;;;12.81;83.21
31092;BME280;67728;53.122;12.776;2023-05-23T03:22:13;100361.78;;;12.77;83.45
31092;BME280;67728;53.122;12.776;2023-05-23T03:23:43;100367.97;;;12.73;83.81
31092;BME280;67728;53.122;12.776;2023-05-23T03:25:15;100362.09;;;12.67;85.33
31092;BME280;67728;53.122;12.776;2023-05-23T03:26:46;100358.88;;;12.58;85.26
31092;BME280;67728;53.122;12.776;2023-05-23T03:28:18;100352.88;;;12.56;85.85
31092;BME280;67728;53.122;12.776;2023-05-23T03:29:50;100356.41;;;12.54;86.23
31092;BME280;67728;53.122;12.776;2023-05-23T03:31:23;100349.16;;;12.65;86.33
31092;BME280;67728;53.122;12.776;2023-05-23T03:32:53;100352.47;;;12.69;86.23
31092;BME280;67728;53.122;12.776;2023-05-23T03:34:25;100348.06;;;12.72;86.66
31092;BME280;67728;53.122;12.776;2023-05-23T03:35:57;100340.34;;;12.69;86.53
31092;BME280;67728;53.122;12.776;2023-05-23T03:37:28;100342.88;;;12.71;85.69
31092;BME280;67728;53.122;12.776;2023-05-23T03:39:00;100341.91;;;12.75;85.21
31092;BME280;67728;53.122;12.776;2023-05-23T03:40:31;100342.78;;;12.74;86.70
31092;BME280;67728;53.122;12.776;2023-05-23T03:42:03;100344.56;;;12.73;86.89
31092;BME280;67728;53.122;12.776;2023-05-23T03:43:34;100336.59;;;12.78;86.99
31092;BME280;67728;53.122;12.776;2023-05-23T03:45:06;100343.38;;;12.83;86.71
31092;BME280;67728;53.122;12.776;2023-05-23T03:46:39;100332.34;;;12.75;87.45
31092;BME280;67728;53.122;12.776;2023-05-23T03:48:11;100335.19;;;12.68;86.86
31092;BME280;67728;53.122;12.776;2023-05-23T03:49:42;100329.16;;;12.66;87.60
31092;BME280;67728;53.122;12.776;2023-05-23T03:51:14;100327.38;;;12.68;87.81
31092;BME280;67728;53.122;12.776;2023-05-23T03:52:46;100323.13;;;12.65;88.13
31092;BME280;67728;53.122;12.776;2023-05-23T03:54:17;100322.72;;;12.77;88.61
31092;BME280;67728;53.122;12.776;2023-05-23T03:55:48;100327.78;;;12.82;87.96
31092;BME280;67728;53.122;12.776;2023-05-23T03:57:19;100327.69;;;12.85;89.39
31092;BME280;67728;53.122;12.776;2023-05-23T03:58:52;100317.69;;;12.73;88.55
31092;BME280;67728;53.122;12.776;2023-05-23T04:00:23;100322.81;;;12.74;89.09
31092;BME280;67728;53.122;12.776;2023-05-23T04:01:56;100319.00;;;12.86;88.93
31092;BME280;67728;53.122;12.776;2023-05-23T04:03:29;100322.38;;;12.89;88.25
31092;BME280;67728;53.122;12.776;2023-05-23T04:05:03;100328.41;;;12.90;88.94
31092;BME280;67728;53.122;12.776;2023-05-23T04:06:35;100324.38;;;12.80;88.57
31092;BME280;67728;53.122;12.776;2023-05-23T04:08:05;100317.28;;;12.85;88.95
31092;BME280;67728;53.122;12.776;2023-05-23T04:09:37;100319.72;;;12.91;88.86
31092;BME280;67728;53.122;12.776;2023-05-23T04:11:09;100327.44;;;12.94;89.19
31092;BME280;67728;53.122;12.776;2023-05-23T04:12:40;100325.59;;;12.97;88.85
31092;BME280;67728;53.122;12.776;2023-05-23T04:14:12;100323.16;;;12.91;89.81
31092;BME280;67728;53.122;12.776;2023-05-23T04:15:44;100324.06;;;12.90;89.97
31092;BME280;67728;53.122;12.776;2023-05-23T04:17:18;100325.78;;;12.91;89.93
31092;BME280;67728;53.122;12.776;2023-05-23T04:18:49;100329.94;;;12.97;89.74
31092;BME280;67728;53.122;12.776;2023-05-23T04:20:21;100325.28;;;13.08;89.10
31092;BME280;67728;53.122;12.776;2023-05-23T04:21:52;100322.91;;;12.99;88.70
31092;BME280;67728;53.122;12.776;2023-05-23T04:23:24;100328.19;;;12.97;89.07
31092;BME280;67728;53.122;12.776;2023-05-23T04:24:56;100324.03;;;12.92;89.29
31092;BME280;67728;53.122;12.776;2023-05-23T04:26:28;100322.16;;;12.95;89.25
31092;BME280;67728;53.122;12.776;2023-05-23T04:27:59;100323.88;;;12.96;90.60
31092;BME280;67728;53.122;12.776;2023-05-23T04:29:31;100321.03;;;13.04;90.23
31092;BME280;67728;53.122;12.776;2023-05-23T04:31:03;100313.47;;;12.96;89.47
31092;BME280;67728;53.122;12.776;2023-05-23T04:32:35;100317.16;;;12.89;89.70
31092;BME280;67728;53.122;12.776;2023-05-23T04:34:07;100314.41;;;12.94;90.59
31092;BME280;67728;53.122;12.776;2023-05-23T04:35:39;100322.72;;;13.05;90.63
31092;BME280;67728;53.122;12.776;2023-05-23T04:37:09;100319.97;;;13.11;90.51
31092;BME280;67728;53.122;12.776;2023-05-23T04:38:42;100323.13;;;13.21;90.53
31092;BME280;67728;53.122;12.776;2023-05-23T04:40:13;100324.78;;;13.23;90.42
31092;BME280;67728;53.122;12.776;2023-05-23T04:41:45;100320.00;;;13.09;89.28
31092;BME280;67728;53.122;12.776;2023-05-23T04:43:17;100324.94;;;13.18;90.60
31092;BME280;67728;53.122;12.776;2023-05-23T04:44:49;100325.47;;;13.28;89.37
31092;BME280;67728;53.122;12.776;2023-05-23T04:46:20;100320.59;;;13.19;89.20
31092;BME280;67728;53.122;12.776;2023-05-23T04:47:56;100324.22;;;13.13;89.45
31092;BME280;67728;53.122;12.776;2023-05-23T04:49:28;100336.75;;;13.29;89.35
31092;BME280;67728;53.122;12.776;2023-05-23T04:51:03;100327.97;;;13.31;90.02
31092;BME280;67728;53.122;12.776;2023-05-23T04:52:37;100323.47;;;13.10;89.87
31092;BME280;67728;53.122;12.776;2023-05-23T04:54:09;100324.22;;;13.13;90.25
31092;BME280;67728;53.122;12.776;2023-05-23T04:55:40;100331.59;;;13.27;90.21
31092;BME280;67728;53.122;12.776;2023-05-23T04:57:12;100319.41;;;13.28;89.40
31092;BME280;67728;53.122;12.776;2023-05-23T04:58:44;100322.25;;;13.20;89.49
31092;BME280;67728;53.122;12.776;2023-05-23T05:00:16;100322.97;;;13.25;90.14
31092;BME280;67728;53.122;12.776;2023-05-23T05:01:48;100323.63;;;13.32;89.97
31092;BME280;67728;53.122;12.776;2023-05-23T05:03:20;100322.56;;;13.37;90.84
31092;BME280;67728;53.122;12.776;2023-05-23T05:04:54;100319.03;;;13.38;89.64
31092;BME280;67728;53.122;12.776;2023-05-23T05:06:25;100319.97;;;13.37;89.40
31092;BME280;67728;53.122;12.776;2023-05-23T05:07:58;100310.44;;;13.36;89.86
31092;BME280;67728;53.122;12.776;2023-05-23T05:09:29;100308.53;;;13.41;90.27
31092;BME280;67728;53.122;12.776;2023-05-23T05:11:01;100310.03;;;13.48;90.44
31092;BME280;67728;53.122;12.776;2023-05-23T05:12:33;100302.81;;;13.56;89.39
31092;BME280;67728;53.122;12.776;2023-05-23T05:14:04;100298.31;;;13.60;89.42
31092;BME280;67728;53.122;12.776;2023-05-23T05:15:36;100298.97;;;13.66;88.83
31092;BME280;67728;53.122;12.776;2023-05-23T05:17:07;100303.06;;;13.73;89.30
31092;BME280;67728;53.122;12.776;2023-05-23T05:18:41;100310.00;;;13.74;89.12
31092;BME280;67728;53.122;12.776;2023-05-23T05:20:12;100303.94;;;13.74;88.64
31092;BME280;67728;53.122;12.776;2023-05-23T05:21:44;100305.38;;;13.83;88.46
31092;BME280;67728;53.122;12.776;2023-05-23T05:23:16;100295.63;;;13.88;88.26
31092;BME280;67728;53.122;12.776;2023-05-23T05:24:47;100288.00;;;13.82;88.33
31092;BME280;67728;53.122;12.776;2023-05-23T05:26:19;100295.63;;;13.88;88.64
31092;BME280;67728;53.122;12.776;2023-05-23T05:27:51;100294.44;;;13.96;88.64
31092;BME280;67728;53.122;12.776;2023-05-23T05:29:22;100290.00;;;13.98;88.92
31092;BME280;67728;53.122;12.776;2023-05-23T05:30:54;100290.47;;;14.09;88.93
31092;BME280;67728;53.122;12.776;2023-05-23T05:32:26;100297.19;;;14.16;88.29
31092;BME280;67728;53.122;12.776;2023-05-23T05:33:59;100295.16;;;14.24;88.08
31092;BME280;67728;53.122;12.776;2023-05-23T05:35:31;100296.78;;;14.27;87.88
31092;BME280;67728;53.122;12.776;2023-05-23T05:37:02;100298.38;;;14.31;86.60
31092;BME280;67728;53.122;12.776;2023-05-23T05:38:34;100296.53;;;14.34;84.35
31092;BME280;67728;53.122;12.776;2023-05-23T05:40:06;100291.91;;;14.41;84.08
31092;BME280;67728;53.122;12.776;2023-05-23T05:41:38;100306.38;;;14.50;83.77
31092;BME280;67728;53.122;12.776;2023-05-23T05:43:10;100289.66;;;14.55;83.52
31092;BME280;67728;53.122;12.776;2023-05-23T05:44:42;100294.63;;;14.61;83.88
31092;BME280;67728;53.122;12.776;2023-05-23T05:46:13;100297.47;;;14.55;82.02
31092;BME280;67728;53.122;12.776;2023-05-23T05:47:45;100290.16;;;14.65;81.55
31092;BME280;67728;53.122;12.776;2023-05-23T05:49:18;100293.47;;;14.68;82.39
31092;BME280;67728;53.122;12.776;2023-05-23T05:50:50;100295.13;;;14.71;82.40
31092;BME280;67728;53.122;12.776;2023-05-23T05:52:21;100296.03;;;14.70;83.11
31092;BME280;67728;53.122;12.776;2023-05-23T05:53:53;100295.00;;;14.74;82.21
31092;BME280;67728;53.122;12.776;2023-05-23T05:55:24;100299.75;;;14.86;83.08
31092;BME280;67728;53.122;12.776;2023-05-23T05:56:56;100293.31;;;14.94;82.83
31092;BME280;67728;53.122;12.776;2023-05-23T05:58:27;100288.94;;;14.95;81.52
31092;BME280;67728;53.122;12.776;2023-05-23T05:59:59;100290.31;;;15.04;82.59
31092;BME280;67728;53.122;12.776;2023-05-23T06:01:31;100291.91;;;15.08;81.22
31092;BME280;67728;53.122;12.776;2023-05-23T06:03:04;100295.63;;;15.02;81.53
31092;BME280;67728;53.122;12.776;2023-05-23T06:04:37;100288.75;;;15.00;81.87
31092;BME280;67728;53.122;12.776;2023-05-23T06:06:08;100290.31;;;15.04;81.06
31092;BME280;67728;53.122;12.776;2023-05-23T06:07:40;100290.50;;;14.99;80.16
31092;BME280;67728;53.122;12.776;2023-05-23T06:09:12;100283.34;;;15.04;80.87
31092;BME280;67728;53.122;12.776;2023-05-23T06:10:44;100296.91;;;15.14;82.00
31092;BME280;67728;53.122;12.776;2023-05-23T06:12:15;100298.88;;;15.29;80.82
31092;BME280;67728;53.122;12.776;2023-05-23T06:13:47;100303.19;;;15.30;80.32
31092;BME280;67728;53.122;12.776;2023-05-23T06:15:18;100306.25;;;15.39;80.67
31092;BME280;67728;53.122;12.776;2023-05-23T06:16:50;100302.53;;;15.45;79.49
31092;BME280;67728;53.122;12.776;2023-05-23T06:18:22;100297.09;;;15.51;79.40
31092;BME280;67728;53.122;12.776;2023-05-23T06:19:55;100293.50;;;15.53;77.48
31092;BME280;67728;53.122;12.776;2023-05-23T06:21:26;100295.19;;;15.54;78.34
31092;BME280;67728;53.122;12.776;2023-05-23T06:22:58;100300.16;;;15.61;80.12
31092;BME280;67728;53.122;12.776;2023-05-23T06:24:31;100296.06;;;15.75;80.19
31092;BME280;67728;53.122;12.776;2023-05-23T06:26:02;100305.28;;;15.84;79.67
31092;BME280;67728;53.122;12.776;2023-05-23T06:27:37;100305.78;;;15.92;79.49
31092;BME280;67728;53.122;12.776;2023-05-23T06:29:08;100303.84;;;15.95;78.40
31092;BME280;67728;53.122;12.776;2023-05-23T06:30:40;100299.22;;;16.02;77.13
31092;BME280;67728;53.122;12.776;2023-05-23T06:32:12;100311.97;;;16.09;77.06
31092;BME280;67728;53.122;12.776;2023-05-23T06:33:43;100308.22;;;16.15;76.44
31092;BME280;67728;53.122;12.776;2023-05-23T06:35:16;100305.88;;;16.09;77.03
31092;BME280;67728;53.122;12.776;2023-05-23T06:36:48;100299.38;;;16.17;76.70
31092;BME280;67728;53.122;12.776;2023-05-23T06:38:21;100300.31;;;16.17;75.86
31092;BME280;67728;53.122;12.776;2023-05-23T06:39:53;100298.25;;;16.23;75.94
31092;BME280;67728;53.122;12.776;2023-05-23T06:41:25;100290.84;;;16.33;75.91
31092;BME280;67728;53.122;12.776;2023-05-23T06:42:56;100298.53;;;16.36;75.14
31092;BME280;67728;53.122;12.776;2023-05-23T06:44:28;100301.88;;;16.39;76.99
31092;BME280;67728;53.122;12.776;2023-05-23T06:46:00;100303.13;;;16.31;72.90
31092;BME280;67728;53.122;12.776;2023-05-23T06:47:31;100306.88;;;16.44;75.04
31092;BME280;67728;53.122;12.776;2023-05-23T06:49:03;100311.09;;;16.48;76.65
31092;BME280;67728;53.122;12.776;2023-05-23T06:50:36;100303.00;;;16.54;74.71
31092;BME280;67728;53.122;12.776;2023-05-23T06:52:08;100306.88;;;16.64;75.33
31092;BME280;67728;53.122;12.776;2023-05-23T06:53:39;100310.88;;;16.71;74.13
31092;BME280;67728;53.122;12.776;2023-05-23T06:55:11;100314.84;;;16.80;74.86
31092;BME280;67728;53.122;12.776;2023-05-23T06:56:47;100310.22;;;16.85;73.40
31092;BME280;67728;53.122;12.776;2023-05-23T06:58:21;100322.91;;;16.94;74.37
31092;BME280;67728;53.122;12.776;2023-05-23T06:59:54;100318.44;;;16.96;73.36
31092;BME280;67728;53.122;12.776;2023-05-23T07:01:25;100322.06;;;16.93;73.76
31092;BME280;67728;53.122;12.776;2023-05-23T07:02:57;100323.00;;;16.92;74.54
31092;BME280;67728;53.122;12.776;2023-05-23T07:04:30;100319.06;;;17.01;73.95
31092;BME280;67728;53.122;12.776;2023-05-23T07:06:03;100320.72;;;16.85;74.83
31092;BME280;67728;53.122;12.776;2023-05-23T07:07:35;100316.47;;;16.82;73.08
31092;BME280;67728;53.122;12.776;2023-05-23T07:09:07;100318.88;;;16.87;72.27
31092;BME280;67728;53.122;12.776;2023-05-23T07:10:41;100315.63;;;16.82;72.50
31092;BME280;67728;53.122;12.776;2023-05-23T07:12:12;100313.09;;;16.80;72.09
31092;BME280;67728;53.122;12.776;2023-05-23T07:13:44;100315.19;;;16.91;72.89
31092;BME280;67728;53.122;12.776;2023-05-23T07:15:16;100312.81;;;17.03;73.19
31092;BME280;67728;53.122;12.776;2023-05-23T07:16:47;100321.53;;;17.04;72.53
31092;BME280;67728;53.122;12.776;2023-05-23T07:18:19;100320.56;;;16.88;73.80
31092;BME280;67728;53.122;12.776;2023-05-23T07:19:51;100313.47;;;17.08;73.23
31092;BME280;67728;53.122;12.776;2023-05-23T07:21:24;100323.44;;;17.19;74.52
31092;BME280;67728;53.122;12.776;2023-05-23T07:22:55;100316.03;;;17.27;74.44
31092;BME280;67728;53.122;12.776;2023-05-23T07:24:27;100316.09;;;17.08;74.64
31092;BME280;67728;53.122;12.776;2023-05-23T07:25:59;100311.84;;;17.23;74.76
31092;BME280;67728;53.122;12.776;2023-05-23T07:27:31;100308.69;;;17.33;75.19
31092;BME280;67728;53.122;12.776;2023-05-23T07:29:03;100307.94;;;17.31;73.60
31092;BME280;67728;53.122;12.776;2023-05-23T07:30:35;100312.72;;;17.23;73.39
31092;BME280;67728;53.122;12.776;2023-05-23T07:32:06;100308.38;;;17.22;73.57
31092;BME280;67728;53.122;12.776;2023-05-23T07:33:38;100314.94;;;17.14;72.32
31092;BME280;67728;53.122;12.776;2023-05-23T07:35:10;100308.22;;;17.25;72.73
31092;BME280;67728;53.122;12.776;2023-05-23T07:36:43;100311.00;;;17.05;72.06
31092;BME280;67728;53.122;12.776;2023-05-23T07:38:14;100316.03;;;16.91;74.68
31092;BME280;67728;53.122;12.776;2023-05-23T07:39:46;100312.50;;;16.92;73.71
31092;BME280;67728;53.122;12.776;2023-05-23T07:41:17;100308.72;;;16.98;73.57
31092;BME280;67728;53.122;12.776;2023-05-23T07:42:49;100308.53;;;17.02;72.19
31092;BME280;67728;53.122;12.776;2023-05-23T07:44:22;100311.47;;;17.13;74.36
31092;BME280;67728;53.122;12.776;2023-05-23T07:45:54;100315.81;;;17.31;74.09
31092;BME280;67728;53.122;12.776;2023-05-23T07:47:25;100309.31;;;17.39;73.26
31092;BME280;67728;53.122;12.776;2023-05-23T07:48:57;100321.28;;;17.44;72.85
31092;BME280;67728;53.122;12.776;2023-05-23T07:50:29;100318.66;;;17.44;71.94
31092;BME280;67728;53.122;12.776;2023-05-23T07:52:02;100318.66;;;17.44;71.80
31092;BME280;67728;53.122;12.776;2023-05-23T07:53:34;100321.53;;;17.40;71.33
31092;BME280;67728;53.122;12.776;2023-05-23T07:55:09;100323.69;;;17.49;72.64
31092;BME280;67728;53.122;12.776;2023-05-23T07:56:41;100319.22;;;17.51;72.12
31092;BME280;67728;53.122;12.776;2023-05-23T07:58:13;100319.09;;;17.54;72.29